createdAt,value
2018-10-16T00:00:18.542Z,96928.64
2018-10-16T00:01:53.950Z,96929.59
2018-10-16T00:03:29.657Z,96926.75
2018-10-16T00:05:04.885Z,96930.02
2018-10-16T00:06:41.072Z,96941.33
2018-10-16T00:08:17.134Z,96940.44
2018-10-16T00:09:53.244Z,96942.30
2018-10-16T00:11:30.205Z,96947.02
2018-10-16T00:13:05.067Z,96954.30
2018-10-16T00:14:40.888Z,96949.45
2018-10-16T00:16:16.957Z,96949.88
2018-10-16T00:17:53.718Z,96946.91
2018-10-16T00:19:30.192Z,96953.87
2018-10-16T00:21:05.297Z,96954.38
2018-10-16T00:22:40.775Z,96950.20
2018-10-16T00:24:15.726Z,96950.04
2018-10-16T00:25:52.506Z,96952.52
2018-10-16T00:27:28.309Z,96954.63
2018-10-16T00:29:03.311Z,96959.06
2018-10-16T00:30:40.753Z,96959.66
2018-10-16T00:32:16.305Z,96955.74
2018-10-16T00:33:51.980Z,96964.16
2018-10-16T00:35:27.284Z,96962.95
2018-10-16T00:37:02.268Z,96958.80
2018-10-16T00:38:37.545Z,96958.80
2018-10-16T00:40:13.530Z,96962.74
2018-10-16T00:41:53.867Z,96959.69
2018-10-16T00:43:28.814Z,96964.53
2018-10-16T00:45:05.267Z,96967.11
2018-10-16T00:46:41.992Z,96965.73
2018-10-16T00:48:20.126Z,96965.46
2018-10-16T00:49:56.328Z,96963.46
2018-10-16T00:51:32.682Z,96965.16
2018-10-16T00:53:07.937Z,96963.72
2018-10-16T00:54:43.738Z,96966.73
2018-10-16T00:56:21.318Z,96970.08
2018-10-16T00:57:56.661Z,96974.78
2018-10-16T00:59:31.589Z,96973.97
2018-10-16T01:01:06.808Z,96976.10
2018-10-16T01:02:42.478Z,96975.13
2018-10-16T01:04:18.185Z,96974.08
2018-10-16T01:05:53.550Z,96978.17
2018-10-16T01:07:28.745Z,96974.50
2018-10-16T01:09:03.843Z,96974.08
2018-10-16T01:10:38.755Z,96977.26
2018-10-16T01:12:14.143Z,96970.52
2018-10-16T01:13:49.588Z,96976.03
2018-10-16T01:15:27.514Z,96982.87
2018-10-16T01:17:02.371Z,96982.38
2018-10-16T01:18:38.547Z,96986.32
2018-10-16T01:20:14.566Z,96984.84
2018-10-16T01:21:49.873Z,96983.42
2018-10-16T01:23:25.639Z,96983.06
2018-10-16T01:25:00.525Z,96988.45
2018-10-16T01:26:35.482Z,96997.03
2018-10-16T01:28:11.193Z,96991.07
2018-10-16T01:29:46.397Z,96991.13
2018-10-16T01:31:23.028Z,96991.56
2018-10-16T01:34:31.870Z,96987.88
2018-10-16T01:36:08.607Z,96993.37
2018-10-16T01:37:44.770Z,96984.52
2018-10-16T01:39:20.942Z,96992.94
2018-10-16T01:40:56.766Z,96990.37
2018-10-16T01:42:33.701Z,96994.72
2018-10-16T01:44:10.782Z,96990.22
2018-10-16T01:45:46.694Z,96989.29
2018-10-16T01:47:23.871Z,96988.34
2018-10-16T01:49:01.428Z,96987.81
2018-10-16T01:50:37.786Z,96989.29
2018-10-16T01:52:14.815Z,96989.69
2018-10-16T01:53:50.925Z,96990.55
2018-10-16T01:55:27.047Z,96990.48
2018-10-16T01:57:03.129Z,96989.42
2018-10-16T01:58:40.807Z,96994.48
2018-10-16T02:00:21.708Z,96995.08
2018-10-16T02:01:57.554Z,96992.19
2018-10-16T02:03:33.789Z,96987.98
2018-10-16T02:05:10.182Z,96989.69
2018-10-16T02:06:47.175Z,96991.31
2018-10-16T02:08:25.094Z,96989.19
2018-10-16T02:10:03.160Z,96987.82
2018-10-16T02:11:41.106Z,96990.92
2018-10-16T02:13:17.244Z,96989.13
2018-10-16T02:14:54.283Z,96990.66
2018-10-16T02:16:31.021Z,96992.02
2018-10-16T02:18:07.442Z,96993.44
2018-10-16T02:19:43.488Z,96997.87
2018-10-16T02:21:20.096Z,96987.72
2018-10-16T02:22:57.912Z,96986.73
2018-10-16T02:24:33.884Z,96985.09
2018-10-16T02:26:10.033Z,96993.22
2018-10-16T02:27:47.204Z,96990.83
2018-10-16T02:29:22.574Z,96989.55
2018-10-16T02:30:59.783Z,96996.19
2018-10-16T02:32:36.831Z,96993.66
2018-10-16T02:34:15.149Z,96995.54
2018-10-16T02:35:50.695Z,96996.79
2018-10-16T02:37:27.121Z,96995.31
2018-10-16T02:39:03.733Z,96991.22
2018-10-16T02:40:40.823Z,96998.27
2018-10-16T02:42:16.883Z,97000.19
2018-10-16T02:43:52.896Z,96992.58
2018-10-16T02:45:28.480Z,96998.81
2018-10-16T02:47:05.453Z,96993.17
2018-10-16T02:48:41.542Z,96994.10
2018-10-16T02:50:17.113Z,96991.37
2018-10-16T02:51:52.513Z,96989.16
2018-10-16T02:53:28.220Z,96988.48
2018-10-16T02:55:05.218Z,96996.50
2018-10-16T02:56:55.061Z,96986.47
2018-10-16T02:58:43.960Z,96993.04
2018-10-16T03:00:32.373Z,96991.39
2018-10-16T03:02:10.162Z,96999.49
2018-10-16T03:03:47.868Z,96995.83
2018-10-16T03:05:26.211Z,96994.81
2018-10-16T03:07:02.955Z,96986.27
2018-10-16T03:08:39.414Z,96995.55
2018-10-16T03:10:16.766Z,96993.73
2018-10-16T03:11:53.832Z,96996.34
2018-10-16T03:13:30.438Z,96999.53
2018-10-16T03:15:10.851Z,97000.02
2018-10-16T03:16:47.513Z,97001.98
2018-10-16T03:18:23.285Z,97002.47
2018-10-16T03:19:58.574Z,97004.61
2018-10-16T03:21:33.957Z,97006.02
2018-10-16T03:23:09.122Z,97003.02
2018-10-16T03:24:44.472Z,97002.86
2018-10-16T03:26:20.344Z,96994.38
2018-10-16T03:27:56.781Z,97001.39
2018-10-16T03:29:31.835Z,96997.31
2018-10-16T03:31:07.175Z,97007.70
2018-10-16T03:32:43.098Z,97001.16
2018-10-16T03:34:18.335Z,96994.59
2018-10-16T03:35:53.608Z,97002.66
2018-10-16T03:37:28.812Z,97002.66
2018-10-16T03:39:04.435Z,97009.38
2018-10-16T03:40:40.265Z,97006.33
2018-10-16T03:42:15.974Z,97008.78
2018-10-16T03:43:59.030Z,97005.27
2018-10-16T03:45:36.165Z,97014.10
2018-10-16T03:47:11.393Z,97011.20
2018-10-16T03:48:47.133Z,97012.89
2018-10-16T03:50:22.417Z,97014.58
2018-10-16T03:51:58.845Z,97013.97
2018-10-16T03:53:34.050Z,97016.55
2018-10-16T03:55:09.694Z,97012.13
2018-10-16T03:56:45.492Z,97017.16
2018-10-16T03:58:20.551Z,97015.31
2018-10-16T03:59:55.811Z,97017.06
2018-10-16T04:01:32.009Z,97019.03
2018-10-16T04:03:07.951Z,97016.95
2018-10-16T04:04:43.535Z,97011.75
2018-10-16T04:06:18.605Z,97016.77
2018-10-16T04:07:54.188Z,97011.30
2018-10-16T04:09:29.181Z,97012.52
2018-10-16T04:11:05.282Z,97010.52
2018-10-16T04:12:41.140Z,97007.61
2018-10-16T04:14:16.245Z,97019.67
2018-10-16T04:15:51.557Z,97021.66
2018-10-16T04:19:24.635Z,97016.05
2018-10-16T04:21:00.854Z,97016.98
2018-10-16T04:22:36.021Z,97017.30
2018-10-16T04:24:12.646Z,97016.87
2018-10-16T04:25:47.877Z,97019.45
2018-10-16T04:27:23.320Z,97017.48
2018-10-16T04:28:58.961Z,97017.95
2018-10-16T04:30:34.387Z,97015.19
2018-10-16T04:32:09.757Z,97022.36
2018-10-16T04:33:45.097Z,97023.58
2018-10-16T04:35:21.250Z,97028.32
2018-10-16T04:36:57.676Z,97022.50
2018-10-16T04:38:33.253Z,97022.66
2018-10-16T04:40:08.822Z,97025.55
2018-10-16T04:41:44.452Z,97023.27
2018-10-16T04:43:20.262Z,97029.37
2018-10-16T04:44:56.316Z,97030.58
2018-10-16T04:46:31.709Z,97030.28
2018-10-16T04:48:07.884Z,97029.52
2018-10-16T04:49:44.250Z,97033.45
2018-10-16T04:51:20.158Z,97036.20
2018-10-16T04:52:56.154Z,97037.72
2018-10-16T04:54:34.643Z,97035.11
2018-10-16T04:56:10.429Z,97040.77
2018-10-16T04:57:46.445Z,97038.31
2018-10-16T04:59:23.354Z,97035.12
2018-10-16T05:01:00.401Z,97032.82
2018-10-16T05:02:36.432Z,97036.80
2018-10-16T05:04:11.977Z,97038.47
2018-10-16T05:05:49.444Z,97041.97
2018-10-16T05:07:25.400Z,97038.91
2018-10-16T05:09:02.562Z,97042.42
2018-10-16T05:10:40.484Z,97048.07
2018-10-16T05:12:17.492Z,97043.80
2018-10-16T05:13:53.158Z,97043.95
2018-10-16T05:15:33.805Z,97038.45
2018-10-16T05:17:11.872Z,97040.46
2018-10-16T05:18:51.212Z,97040.94
2018-10-16T05:20:28.246Z,97038.19
2018-10-16T05:22:07.478Z,97049.16
2018-10-16T05:23:43.035Z,97046.28
2018-10-16T05:25:20.335Z,97037.91
2018-10-16T05:26:58.009Z,97040.52
2018-10-16T05:28:35.983Z,97039.55
2018-10-16T05:30:14.152Z,97039.11
2018-10-16T05:31:50.076Z,97041.23
2018-10-16T05:33:26.402Z,97042.13
2018-10-16T05:35:01.924Z,97041.36
2018-10-16T05:36:37.552Z,97043.34
2018-10-16T05:38:15.017Z,97042.90
2018-10-16T05:39:51.634Z,97045.78
2018-10-16T05:41:29.783Z,97046.25
2018-10-16T05:43:06.564Z,97047.30
2018-10-16T05:44:43.402Z,97045.17
2018-10-16T05:46:21.169Z,97053.38
2018-10-16T05:47:58.108Z,97052.61
2018-10-16T05:49:33.635Z,97055.52
2018-10-16T05:51:10.655Z,97055.67
2018-10-16T05:52:47.463Z,97058.73
2018-10-16T05:54:25.886Z,97064.53
2018-10-16T05:56:05.334Z,97066.22
2018-10-16T05:57:41.058Z,97061.99
2018-10-16T05:59:17.540Z,97065.63
2018-10-16T06:00:58.526Z,97064.58
2018-10-16T06:02:35.435Z,97064.44
2018-10-16T06:04:14.358Z,97065.36
2018-10-16T06:05:50.157Z,97070.22
2018-10-16T06:07:26.044Z,97069.02
2018-10-16T06:09:02.868Z,97068.09
2018-10-16T06:10:38.482Z,97075.39
2018-10-16T06:12:14.999Z,97079.98
2018-10-16T06:13:51.324Z,97080.30
2018-10-16T06:15:27.799Z,97081.84
2018-10-16T06:17:03.490Z,97082.61
2018-10-16T06:18:39.290Z,97083.38
2018-10-16T06:20:17.109Z,97088.41
2018-10-16T06:21:56.574Z,97091.92
2018-10-16T06:23:33.538Z,97092.55
2018-10-16T06:25:10.357Z,97090.25
2018-10-16T06:26:46.787Z,97090.88
2018-10-16T06:28:29.049Z,97092.88
2018-10-16T06:30:05.706Z,97092.11
2018-10-16T06:31:41.488Z,97092.72
2018-10-16T06:33:19.469Z,97092.70
2018-10-16T06:34:55.244Z,97090.88
2018-10-16T06:36:30.726Z,97093.17
2018-10-16T06:38:06.234Z,97094.86
2018-10-16T06:39:41.612Z,97095.33
2018-10-16T06:41:16.859Z,97095.62
2018-10-16T06:42:52.214Z,97094.25
2018-10-16T06:44:28.335Z,97096.39
2018-10-16T06:46:03.495Z,97093.34
2018-10-16T06:47:39.535Z,97086.77
2018-10-16T06:49:14.850Z,97092.88
2018-10-16T06:50:50.414Z,97094.88
2018-10-16T06:52:27.917Z,97093.66
2018-10-16T06:54:04.041Z,97094.88
2018-10-16T06:55:39.321Z,97093.52
2018-10-16T06:57:15.041Z,97086.95
2018-10-16T06:58:50.830Z,97099.78
2018-10-16T07:04:21.649Z,97098.87
2018-10-16T07:05:58.621Z,97093.06
2018-10-16T07:07:36.845Z,97092.31
2018-10-16T07:09:14.549Z,97097.34
2018-10-16T07:10:50.542Z,97099.03
2018-10-16T07:12:26.047Z,97094.91
2018-10-16T07:14:03.285Z,97095.34
2018-10-16T07:15:38.774Z,97103.73
2018-10-16T07:17:16.720Z,97107.09
2018-10-16T07:18:54.863Z,97108.92
2018-10-16T07:20:50.647Z,97106.63
2018-10-16T07:22:25.982Z,97109.36
2018-10-16T07:24:03.461Z,97113.02
2018-10-16T07:25:39.798Z,97113.63
2018-10-16T07:27:15.118Z,97107.52
2018-10-16T07:28:52.344Z,97116.11
2018-10-16T07:30:28.438Z,97115.92
2018-10-16T07:32:07.286Z,97111.64
2018-10-16T07:33:43.750Z,97113.63
2018-10-16T07:35:19.400Z,97115.62
2018-10-16T07:36:56.726Z,97116.88
2018-10-16T07:38:35.446Z,97118.98
2018-10-16T07:40:14.154Z,97118.25
2018-10-16T07:41:53.386Z,97113.20
2018-10-16T07:43:29.258Z,97119.16
2018-10-16T07:45:09.686Z,97115.03
2018-10-16T07:46:47.166Z,97123.44
2018-10-16T07:48:22.847Z,97121.78
2018-10-16T07:49:58.800Z,97122.09
2018-10-16T07:51:37.243Z,97122.37
2018-10-16T07:53:15.266Z,97124.05
2018-10-16T07:54:55.122Z,97121.89
2018-10-16T07:56:34.049Z,97119.29
2018-10-16T07:58:10.875Z,97120.36
2018-10-16T07:59:48.966Z,97126.78
2018-10-16T08:01:24.763Z,97128.73
2018-10-16T08:03:03.756Z,97125.53
2018-10-16T08:04:41.713Z,97123.66
2018-10-16T08:06:19.898Z,97128.35
2018-10-16T08:07:55.631Z,97121.28
2018-10-16T08:09:33.369Z,97126.00
2018-10-16T08:11:09.224Z,97128.11
2018-10-16T08:12:48.061Z,97122.83
2018-10-16T08:14:28.147Z,97124.84
2018-10-16T08:16:04.249Z,97122.05
2018-10-16T08:17:46.365Z,97126.92
2018-10-16T08:19:23.277Z,97121.27
2018-10-16T08:21:03.711Z,97125.53
2018-10-16T08:22:40.039Z,97127.00
2018-10-16T08:24:17.989Z,97130.32
2018-10-16T08:25:59.665Z,97129.20
2018-10-16T08:27:38.133Z,97128.83
2018-10-16T08:29:13.959Z,97130.88
2018-10-16T08:30:50.233Z,97135.52
2018-10-16T08:32:28.633Z,97130.22
2018-10-16T08:34:06.204Z,97116.53
2018-10-16T08:35:43.465Z,97124.14
2018-10-16T08:37:31.159Z,97117.66
2018-10-16T08:39:17.913Z,97124.25
2018-10-16T08:40:56.380Z,97115.48
2018-10-16T08:43:42.331Z,97117.98
2018-10-16T08:45:29.649Z,97116.91
2018-10-16T08:47:17.481Z,97120.86
2018-10-16T08:49:08.233Z,97117.22
2018-10-16T08:50:54.394Z,97118.27
2018-10-16T08:52:30.162Z,97114.93
2018-10-16T08:54:06.414Z,97122.17
2018-10-16T08:55:42.992Z,97116.12
2018-10-16T08:57:19.420Z,97111.47
2018-10-16T08:58:57.196Z,97115.59
2018-10-16T09:00:37.143Z,97118.81
2018-10-16T09:02:15.239Z,97122.01
2018-10-16T09:03:53.633Z,97124.92
2018-10-16T09:05:29.814Z,97131.11
2018-10-16T09:07:07.051Z,97124.75
2018-10-16T09:08:44.763Z,97124.67
2018-10-16T09:10:20.210Z,97117.11
2018-10-16T09:11:55.482Z,97117.92
2018-10-16T09:13:31.344Z,97121.37
2018-10-16T09:15:16.622Z,97113.86
2018-10-16T09:16:54.685Z,97119.42
2018-10-16T09:18:31.972Z,97114.80
2018-10-16T09:20:08.610Z,97120.92
2018-10-16T09:21:45.634Z,97119.31
2018-10-16T09:23:22.319Z,97122.52
2018-10-16T09:24:59.557Z,97123.23
2018-10-16T09:26:35.413Z,97127.28
2018-10-16T09:28:15.785Z,97128.08
2018-10-16T09:29:52.721Z,97126.05
2018-10-16T09:31:31.692Z,97129.22
2018-10-16T09:33:08.153Z,97125.55
2018-10-16T09:34:44.485Z,97118.67
2018-10-16T09:36:21.299Z,97126.18
2018-10-16T09:37:59.646Z,97127.41
2018-10-16T09:39:40.146Z,97122.70
2018-10-16T09:41:18.472Z,97115.20
2018-10-16T09:46:51.411Z,97120.83
2018-10-16T09:48:29.874Z,97115.51
2018-10-16T09:50:10.071Z,97122.64
2018-10-16T09:51:46.203Z,97122.16
2018-10-16T09:53:25.390Z,97123.16
2018-10-16T09:55:02.795Z,97125.73
2018-10-16T09:56:41.019Z,97120.48
2018-10-16T09:58:21.586Z,97121.77
2018-10-16T09:59:59.365Z,97124.30
2018-10-16T10:01:43.677Z,97118.33
2018-10-16T10:03:20.405Z,97125.88
2018-10-16T10:04:56.522Z,97125.73
2018-10-16T10:06:35.316Z,97126.31
2018-10-16T10:08:10.755Z,97122.36
2018-10-16T10:09:47.813Z,97122.82
2018-10-16T10:11:27.239Z,97126.72
2018-10-16T10:13:05.253Z,97121.14
2018-10-16T10:14:43.669Z,97122.65
2018-10-16T10:16:23.364Z,97117.73
2018-10-16T10:18:04.385Z,97119.84
2018-10-16T10:19:48.390Z,97117.30
2018-10-16T10:21:26.862Z,97123.70
2018-10-16T10:24:51.947Z,97121.63
2018-10-16T10:26:37.828Z,97124.31
2018-10-16T10:28:16.260Z,97121.59
2018-10-16T10:29:53.709Z,97121.02
2018-10-16T10:31:33.520Z,97117.05
2018-10-16T10:33:13.623Z,97120.52
2018-10-16T10:34:55.950Z,97120.13
2018-10-16T10:36:36.585Z,97119.43
2018-10-16T10:38:12.810Z,97127.45
2018-10-16T10:39:51.580Z,97118.88
2018-10-16T10:41:28.919Z,97116.06
2018-10-16T10:43:08.251Z,97113.52
2018-10-16T10:44:44.245Z,97116.44
2018-10-16T10:46:20.268Z,97115.14
2018-10-16T10:47:57.407Z,97112.87
2018-10-16T10:49:38.180Z,97108.48
2018-10-16T10:51:16.412Z,97114.39
2018-10-16T10:52:55.993Z,97116.88
2018-10-16T10:54:31.864Z,97114.52
2018-10-16T10:56:09.293Z,97111.63
2018-10-16T10:57:45.010Z,97111.73
2018-10-16T10:59:21.316Z,97110.53
2018-10-16T11:00:58.632Z,97106.89
2018-10-16T11:02:38.111Z,97107.03
2018-10-16T11:04:15.648Z,97110.56
2018-10-16T11:05:54.270Z,97100.02
2018-10-16T11:07:32.031Z,97112.52
2018-10-16T11:09:11.864Z,97115.61
2018-10-16T11:12:32.060Z,97112.88
2018-10-16T11:14:09.992Z,97117.10
2018-10-16T11:15:46.945Z,97112.85
2018-10-16T11:17:22.673Z,97116.89
2018-10-16T11:19:00.148Z,97111.39
2018-10-16T11:20:36.817Z,97116.75
2018-10-16T11:22:13.128Z,97114.83
2018-10-16T11:23:50.333Z,97113.54
2018-10-16T11:25:26.015Z,97105.83
2018-10-16T11:27:01.707Z,97103.37
2018-10-16T11:28:41.247Z,97101.83
2018-10-16T11:30:18.598Z,97105.08
2018-10-16T11:31:55.569Z,97101.41
2018-10-16T11:33:32.053Z,97112.58
2018-10-16T11:35:11.111Z,97112.56
2018-10-16T11:36:48.373Z,97117.85
2018-10-16T11:38:30.408Z,97114.92
2018-10-16T11:40:09.332Z,97120.02
2018-10-16T11:41:50.833Z,97123.12
2018-10-16T11:43:28.264Z,97125.98
2018-10-16T11:45:05.283Z,97122.95
2018-10-16T11:46:42.173Z,97119.31
2018-10-16T11:48:19.479Z,97118.45
2018-10-16T11:49:57.036Z,97117.84
2018-10-16T11:51:33.509Z,97115.17
2018-10-16T11:53:09.925Z,97116.89
2018-10-16T11:54:50.294Z,97119.06
2018-10-16T11:56:31.387Z,97116.36
2018-10-16T11:58:09.405Z,97116.56
2018-10-16T11:59:47.479Z,97118.52
2018-10-16T12:01:30.187Z,97117.89
2018-10-16T12:03:10.698Z,97119.52
2018-10-16T12:04:50.670Z,97116.64
2018-10-16T12:06:28.921Z,97119.92
2018-10-16T12:08:05.016Z,97116.53
2018-10-16T12:09:44.883Z,97117.08
2018-10-16T12:11:25.036Z,97119.17
2018-10-16T12:13:01.378Z,97119.67
2018-10-16T12:14:39.357Z,97116.12
2018-10-16T12:16:20.827Z,97111.77
2018-10-16T12:18:31.732Z,97108.92
2018-10-16T12:20:18.575Z,97107.94
2018-10-16T12:21:56.689Z,97116.03
2018-10-16T12:23:33.468Z,97119.73
2018-10-16T12:25:10.992Z,97111.64
2018-10-16T12:26:49.435Z,97114.58
2018-10-16T12:28:27.384Z,97112.07
2018-10-16T12:30:12.459Z,97115.39
2018-10-16T12:31:52.044Z,97109.00
2018-10-16T12:33:28.994Z,97114.34
2018-10-16T12:35:06.168Z,97113.21
2018-10-16T12:36:44.017Z,97106.98
2018-10-16T12:38:22.809Z,97108.52
2018-10-16T12:40:00.296Z,97106.21
2018-10-16T12:41:36.418Z,97108.41
2018-10-16T12:43:13.946Z,97114.26
2018-10-16T12:44:49.969Z,97115.38
2018-10-16T12:46:26.082Z,97107.41
2018-10-16T12:48:02.340Z,97110.59
2018-10-16T12:49:38.347Z,97106.88
2018-10-16T12:51:22.313Z,97114.52
2018-10-16T12:52:59.991Z,97108.48
2018-10-16T12:54:36.531Z,97112.19
2018-10-16T12:56:12.069Z,97110.38
2018-10-16T12:57:49.855Z,97109.10
2018-10-16T12:59:26.537Z,97111.19
2018-10-16T13:01:02.560Z,97107.52
2018-10-16T13:02:42.065Z,97108.25
2018-10-16T13:04:21.073Z,97113.67
2018-10-16T13:05:57.143Z,97106.63
2018-10-16T13:07:39.325Z,97112.45
2018-10-16T13:09:18.107Z,97108.03
2018-10-16T13:10:54.396Z,97109.06
2018-10-16T13:12:36.402Z,97111.40
2018-10-16T13:14:12.818Z,97111.70
2018-10-16T13:15:49.647Z,97111.03
2018-10-16T13:17:45.499Z,97111.06
2018-10-16T13:19:39.722Z,97113.86
2018-10-16T13:21:28.451Z,97108.00
2018-10-16T13:23:05.145Z,97114.04
2018-10-16T13:24:41.588Z,97109.86
2018-10-16T13:26:17.326Z,97107.83
2018-10-16T13:27:53.237Z,97104.94
2018-10-16T13:29:29.568Z,97105.06
2018-10-16T13:31:07.404Z,97106.38
2018-10-16T13:32:45.447Z,97102.70
2018-10-16T13:34:21.169Z,97100.73
2018-10-16T13:35:58.795Z,97105.80
2018-10-16T13:37:35.714Z,97101.25
2018-10-16T13:39:20.370Z,97104.16
2018-10-16T13:40:58.223Z,97106.95
2018-10-16T13:42:37.932Z,97103.13
2018-10-16T13:44:15.564Z,97102.72
2018-10-16T13:45:55.199Z,97105.30
2018-10-16T13:47:32.758Z,97107.88
2018-10-16T13:49:09.602Z,97102.03
2018-10-16T13:50:49.379Z,97105.58
2018-10-16T13:52:25.948Z,97111.28
2018-10-16T13:54:02.735Z,97108.37
2018-10-16T13:55:44.753Z,97107.09
2018-10-16T13:57:21.030Z,97110.00
2018-10-16T13:58:57.808Z,97108.14
2018-10-16T14:00:34.305Z,97107.66
2018-10-16T14:02:17.655Z,97111.85
2018-10-16T14:03:55.409Z,97107.55
2018-10-16T14:05:32.015Z,97107.97
2018-10-16T14:07:25.139Z,97108.88
2018-10-16T14:09:02.482Z,97108.80
2018-10-16T14:10:44.148Z,97108.28
2018-10-16T14:12:33.620Z,97112.43
2018-10-16T14:14:10.449Z,97111.52
2018-10-16T14:15:52.077Z,97105.97
2018-10-16T14:17:30.452Z,97112.31
2018-10-16T14:19:06.843Z,97114.10
2018-10-16T14:20:43.919Z,97110.25
2018-10-16T14:22:20.108Z,97112.22
2018-10-16T14:24:00.856Z,97109.16
2018-10-16T14:25:37.713Z,97113.10
2018-10-16T14:27:16.593Z,97112.13
2018-10-16T14:28:54.565Z,97112.34
2018-10-16T14:30:35.014Z,97113.62
2018-10-16T14:32:13.191Z,97115.25
2018-10-16T14:33:48.933Z,97115.25
2018-10-16T14:35:26.029Z,97111.01
2018-10-16T14:37:02.644Z,97108.47
2018-10-16T14:38:41.897Z,97110.10
2018-10-16T14:40:19.794Z,97108.28
2018-10-16T14:41:57.177Z,97115.55
2018-10-16T14:43:34.083Z,97108.34
2018-10-16T14:45:17.452Z,97109.47
2018-10-16T14:46:55.086Z,97109.34
2018-10-16T14:48:34.787Z,97109.10
2018-10-16T14:50:29.069Z,97106.55
2018-10-16T14:52:07.445Z,97103.89
2018-10-16T14:53:47.746Z,97105.95
2018-10-16T14:55:23.968Z,97106.07
2018-10-16T14:56:59.196Z,97105.95
2018-10-16T14:58:37.910Z,97110.31
2018-10-16T15:00:27.505Z,97109.06
2018-10-16T15:02:04.491Z,97112.55
2018-10-16T15:05:27.406Z,97110.52
2018-10-16T15:07:09.663Z,97105.45
2018-10-16T15:08:51.298Z,97104.70
2018-10-16T15:10:34.547Z,97102.03
2018-10-16T15:12:19.984Z,97106.88
2018-10-16T15:16:56.503Z,97104.86
2018-10-16T15:18:36.898Z,97103.73
2018-10-16T15:20:15.326Z,97102.22
2018-10-16T15:21:51.675Z,97106.36
2018-10-16T15:23:32.272Z,97109.94
2018-10-16T15:25:10.342Z,97100.81
2018-10-16T15:26:49.785Z,97104.69
2018-10-16T15:28:32.531Z,97104.44
2018-10-16T15:30:09.513Z,97106.88
2018-10-16T15:31:49.426Z,97103.28
2018-10-16T15:33:26.792Z,97101.89
2018-10-16T15:35:03.260Z,97102.70
2018-10-16T15:36:39.785Z,97107.80
2018-10-16T15:38:17.429Z,97107.61
2018-10-16T15:39:56.562Z,97107.11
2018-10-16T15:41:33.401Z,97103.50
2018-10-16T15:43:11.342Z,97105.17
2018-10-16T15:44:47.558Z,97102.31
2018-10-16T15:46:23.011Z,97105.78
2018-10-16T15:48:01.125Z,97102.27
2018-10-16T15:49:38.827Z,97105.34
2018-10-16T15:51:14.785Z,97101.20
2018-10-16T15:52:50.614Z,97109.29
2018-10-16T15:54:26.641Z,97111.70
2018-10-16T15:56:04.667Z,97114.09
2018-10-16T15:57:44.091Z,97116.38
2018-10-16T15:59:22.561Z,97115.73
2018-10-16T16:00:58.250Z,97124.20
2018-10-16T16:02:35.662Z,97124.82
2018-10-16T16:04:13.380Z,97122.14
2018-10-16T16:05:52.274Z,97121.35
2018-10-16T16:07:31.541Z,97121.77
2018-10-16T16:09:16.605Z,97124.52
2018-10-16T16:11:02.702Z,97124.52
2018-10-16T16:12:44.099Z,97130.16
2018-10-16T16:14:21.088Z,97127.09
2018-10-16T16:16:01.373Z,97128.97
2018-10-16T16:17:38.516Z,97129.70
2018-10-16T16:19:15.443Z,97133.86
2018-10-16T16:20:54.461Z,97133.86
2018-10-16T16:22:32.766Z,97130.02
2018-10-16T16:24:10.505Z,97131.84
2018-10-16T16:25:50.130Z,97137.90
2018-10-16T16:27:28.523Z,97140.89
2018-10-16T16:29:06.459Z,97136.80
2018-10-16T16:30:54.332Z,97139.80
2018-10-16T16:32:33.687Z,97137.20
2018-10-16T16:34:11.309Z,97140.20
2018-10-16T16:35:51.318Z,97139.69
2018-10-16T16:37:30.588Z,97141.16
2018-10-16T16:40:50.268Z,97137.14
2018-10-16T16:42:27.312Z,97139.52
2018-10-16T16:44:05.126Z,97139.89
2018-10-16T16:45:43.679Z,97135.14
2018-10-16T16:47:20.417Z,97139.43
2018-10-16T16:48:56.225Z,97136.39
2018-10-16T16:50:35.271Z,97139.20
2018-10-16T16:52:17.629Z,97137.79
2018-10-16T16:53:58.227Z,97139.66
2018-10-16T16:55:41.518Z,97135.27
2018-10-16T16:57:22.330Z,97148.89
2018-10-16T16:59:00.111Z,97147.74
2018-10-16T17:00:47.243Z,97152.91
2018-10-16T17:02:23.630Z,97153.88
2018-10-16T17:04:02.674Z,97156.30
2018-10-16T17:05:41.552Z,97158.69
2018-10-16T17:07:21.001Z,97158.65
2018-10-16T17:09:03.825Z,97157.93
2018-10-16T17:10:44.927Z,97159.69
2018-10-16T17:12:22.518Z,97162.88
2018-10-16T17:14:01.285Z,97162.73
2018-10-16T17:15:39.842Z,97168.98
2018-10-16T17:17:18.695Z,97173.97
2018-10-16T17:19:02.238Z,97176.03
2018-10-16T17:22:34.680Z,97179.03
2018-10-16T17:24:44.852Z,97180.96
2018-10-16T17:26:21.446Z,97182.69
2018-10-16T17:28:05.971Z,97181.53
2018-10-16T17:29:44.931Z,97177.86
2018-10-16T17:31:24.346Z,97179.25
2018-10-16T17:33:02.512Z,97186.03
2018-10-16T17:34:41.667Z,97180.83
2018-10-16T17:36:25.895Z,97180.69
2018-10-16T17:38:04.267Z,97183.09
2018-10-16T17:39:48.130Z,97180.75
2018-10-16T17:41:28.482Z,97179.50
2018-10-16T17:43:07.645Z,97179.34
2018-10-16T17:44:57.604Z,97186.02
2018-10-16T17:46:52.685Z,97186.74
2018-10-16T17:48:34.882Z,97179.48
2018-10-16T17:50:15.568Z,97182.59
2018-10-16T17:52:01.689Z,97180.02
2018-10-16T18:01:47.401Z,97185.33
2018-10-16T18:03:30.712Z,97182.13
2018-10-16T18:05:11.372Z,97187.70
2018-10-16T18:06:54.646Z,97188.27
2018-10-16T18:08:35.328Z,97191.90
2018-10-16T18:10:18.187Z,97195.17
2018-10-16T18:12:01.729Z,97196.03
2018-10-16T18:13:47.146Z,97201.34
2018-10-16T18:17:28.770Z,97203.28
2018-10-16T18:19:19.128Z,97207.33
2018-10-16T18:20:55.859Z,97200.80
2018-10-16T18:22:36.706Z,97202.68
2018-10-16T18:24:15.326Z,97204.08
2018-10-16T18:25:56.328Z,97208.08
2018-10-16T18:27:42.991Z,97204.42
2018-10-16T18:29:23.694Z,97205.53
2018-10-16T18:31:01.865Z,97210.61
2018-10-16T18:34:24.290Z,97210.63
2018-10-16T18:36:06.699Z,97206.39
2018-10-16T18:37:49.294Z,97209.47
2018-10-16T18:39:37.174Z,97207.05
2018-10-16T18:41:16.778Z,97204.03
2018-10-16T18:43:09.089Z,97204.48
2018-10-16T18:44:54.391Z,97205.88
2018-10-16T18:46:35.665Z,97209.45
2018-10-16T18:48:22.365Z,97208.08
2018-10-16T18:50:07.267Z,97201.63
2018-10-16T18:51:53.288Z,97201.91
2018-10-16T18:53:39.798Z,97202.81
2018-10-16T18:55:27.323Z,97199.59
2018-10-16T18:57:08.581Z,97203.11
2018-10-16T18:58:52.217Z,97197.39
2018-10-16T19:01:05.386Z,97194.89
2018-10-16T19:02:47.596Z,97197.30
2018-10-16T19:04:25.507Z,97200.27
2018-10-16T19:06:04.872Z,97198.52
2018-10-16T19:07:42.808Z,97202.92
2018-10-16T19:09:20.948Z,97198.73
2018-10-16T19:11:04.988Z,97202.70
2018-10-16T19:12:45.706Z,97202.95
2018-10-16T19:14:34.565Z,97208.12
2018-10-16T19:16:13.203Z,97200.28
2018-10-16T19:18:06.246Z,97208.42
2018-10-16T19:19:42.375Z,97207.67
2018-10-16T19:21:18.875Z,97211.59
2018-10-16T19:22:58.149Z,97213.41
2018-10-16T19:24:38.625Z,97209.72
2018-10-16T19:26:18.710Z,97215.09
2018-10-16T19:27:56.210Z,97218.55
2018-10-16T19:29:34.490Z,97216.85
2018-10-16T19:31:10.121Z,97215.44
2018-10-16T19:32:46.366Z,97212.53
2018-10-16T19:34:25.448Z,97220.49
2018-10-16T19:36:03.000Z,97214.23
2018-10-16T19:37:42.303Z,97218.26
2018-10-16T19:39:19.315Z,97211.23
2018-10-16T19:40:56.005Z,97215.73
2018-10-16T19:42:33.890Z,97218.22
2018-10-16T19:44:09.931Z,97214.11
2018-10-16T19:45:47.530Z,97213.98
2018-10-16T19:47:23.877Z,97209.08
2018-10-16T19:49:00.481Z,97218.88
2018-10-16T19:50:38.027Z,97213.13